createdAt,value
2024-02-29T00:00:45.637Z,4.61
2024-02-29T00:01:47.480Z,4.67
2024-02-29T00:02:49.083Z,4.68
2024-02-29T00:03:51.066Z,4.72
2024-02-29T00:04:52.589Z,4.74
2024-02-29T00:05:55.226Z,4.65
2024-02-29T00:06:56.869Z,4.67
2024-02-29T00:07:58.432Z,4.68
2024-02-29T00:09:00.058Z,4.70
2024-02-29T00:10:01.680Z,4.60
2024-02-29T00:11:03.809Z,4.66
2024-02-29T00:12:06.231Z,4.70
2024-02-29T00:13:07.815Z,4.76
2024-02-29T00:14:09.918Z,4.69
2024-02-29T00:15:12.046Z,4.64
2024-02-29T00:16:14.702Z,4.72
2024-02-29T00:17:16.770Z,4.77
2024-02-29T00:18:18.285Z,4.67
2024-02-29T00:19:21.131Z,4.67
2024-02-29T00:20:22.678Z,4.61
2024-02-29T00:21:24.471Z,4.62
2024-02-29T00:22:26.017Z,4.66
2024-02-29T00:23:27.516Z,4.71
2024-02-29T00:24:29.578Z,4.84
2024-02-29T00:25:31.271Z,4.82
2024-02-29T00:26:32.767Z,4.74
2024-02-29T00:27:34.471Z,4.68
2024-02-29T00:28:36.081Z,4.70
2024-02-29T00:29:39.751Z,4.68
2024-02-29T00:30:41.328Z,4.75
2024-02-29T00:31:44.719Z,4.75
2024-02-29T00:32:47.527Z,4.80
2024-02-29T00:33:49.156Z,4.77
2024-02-29T00:34:51.139Z,4.77
2024-02-29T00:36:02.215Z,4.79
2024-02-29T00:37:06.622Z,4.94
2024-02-29T00:38:08.176Z,4.70
2024-02-29T00:39:14.830Z,4.84
2024-02-29T00:40:17.383Z,4.90
2024-02-29T00:41:19.016Z,4.78
2024-02-29T00:42:20.531Z,4.77
2024-02-29T00:43:22.014Z,4.62
2024-02-29T00:44:23.522Z,4.66
2024-02-29T00:45:25.112Z,4.62
2024-02-29T00:46:26.611Z,4.52
2024-02-29T00:47:28.147Z,4.48
2024-02-29T00:48:29.781Z,4.56
2024-02-29T00:49:32.110Z,4.56
2024-02-29T00:50:34.144Z,4.61
2024-02-29T00:51:35.793Z,4.57
2024-02-29T00:52:39.138Z,4.56
2024-02-29T00:53:40.777Z,4.41
2024-02-29T00:54:42.920Z,4.46
2024-02-29T00:55:44.787Z,4.55
2024-02-29T00:56:46.415Z,4.46
2024-02-29T00:57:50.933Z,4.39
2024-02-29T00:58:52.523Z,4.47
2024-02-29T00:59:54.392Z,4.54
2024-02-29T01:00:56.088Z,4.48
2024-02-29T01:01:57.950Z,4.44
2024-02-29T01:02:59.521Z,4.36
2024-02-29T01:04:01.138Z,4.49
2024-02-29T01:05:03.014Z,4.53
2024-02-29T01:06:05.628Z,4.55
2024-02-29T01:07:07.757Z,4.52
2024-02-29T01:08:09.655Z,4.51
2024-02-29T01:09:11.186Z,4.60
2024-02-29T01:10:16.110Z,4.57
2024-02-29T01:11:17.742Z,4.54
2024-02-29T01:12:19.450Z,4.54
2024-02-29T01:13:20.995Z,4.58
2024-02-29T01:14:22.565Z,4.49
2024-02-29T01:15:24.488Z,4.42
2024-02-29T01:16:26.234Z,4.45
2024-02-29T01:17:27.792Z,4.53
2024-02-29T01:18:29.356Z,4.46
2024-02-29T01:19:30.877Z,4.55
2024-02-29T01:20:34.063Z,4.37
2024-02-29T01:21:35.590Z,4.47
2024-02-29T01:22:37.115Z,4.30
2024-02-29T01:23:38.651Z,4.31
2024-02-29T01:24:40.164Z,4.27
2024-02-29T01:25:41.886Z,4.33
2024-02-29T01:26:43.460Z,4.42
2024-02-29T01:27:45.035Z,4.46
2024-02-29T01:28:46.533Z,4.36
2024-02-29T01:29:48.091Z,4.48
2024-02-29T01:30:50.507Z,4.31
2024-02-29T01:31:52.152Z,4.48
2024-02-29T01:32:53.776Z,4.46
2024-02-29T01:33:55.416Z,4.55
2024-02-29T01:34:57.144Z,4.55
2024-02-29T01:35:58.765Z,4.44
2024-02-29T01:37:00.290Z,4.43
2024-02-29T01:38:01.828Z,4.35
2024-02-29T01:39:04.162Z,4.29
2024-02-29T01:40:06.635Z,4.36
2024-02-29T01:41:08.487Z,4.41
2024-02-29T01:42:11.318Z,4.40
2024-02-29T01:43:12.916Z,4.38
2024-02-29T01:44:14.457Z,4.50
2024-02-29T01:45:18.152Z,4.58
2024-02-29T01:46:19.842Z,4.65
2024-02-29T01:47:24.935Z,4.60
2024-02-29T01:48:26.566Z,4.76
2024-02-29T01:49:28.750Z,4.75
2024-02-29T01:50:30.777Z,4.75
2024-02-29T01:51:32.522Z,4.72
2024-02-29T01:52:35.306Z,4.80
2024-02-29T01:53:36.860Z,4.82
2024-02-29T01:54:40.166Z,4.88
2024-02-29T01:55:42.149Z,4.90
2024-02-29T01:56:43.825Z,4.93
2024-02-29T01:57:45.430Z,4.90
2024-02-29T01:58:47.090Z,4.98
2024-02-29T01:59:50.111Z,4.94
2024-02-29T02:00:52.814Z,5.25
2024-02-29T02:01:54.487Z,5.07
2024-02-29T02:02:56.762Z,5.01
2024-02-29T02:03:58.395Z,4.76
2024-02-29T02:04:59.984Z,4.91
2024-02-29T02:06:01.955Z,4.84
2024-02-29T02:07:04.726Z,4.87
2024-02-29T02:08:06.681Z,4.96
2024-02-29T02:09:08.260Z,4.97
2024-02-29T02:10:12.914Z,5.03
2024-02-29T02:11:14.853Z,5.05
2024-02-29T02:12:16.446Z,4.99
2024-02-29T02:13:17.978Z,5.06
2024-02-29T02:14:20.189Z,5.08
2024-02-29T02:15:22.412Z,5.12
2024-02-29T02:16:23.961Z,5.07
2024-02-29T02:17:25.451Z,5.09
2024-02-29T02:18:27.077Z,5.13
2024-02-29T02:19:28.609Z,5.19
2024-02-29T02:20:30.506Z,5.19
2024-02-29T02:21:32.064Z,5.21
2024-02-29T02:22:33.570Z,5.27
2024-02-29T02:23:35.102Z,5.36
2024-02-29T02:24:36.792Z,5.41
2024-02-29T02:25:38.377Z,5.35
2024-02-29T02:26:40.012Z,5.34
2024-02-29T02:27:41.632Z,5.36
2024-02-29T02:28:43.496Z,5.41
2024-02-29T02:29:44.985Z,5.45
2024-02-29T02:30:46.863Z,5.43
2024-02-29T02:31:48.407Z,5.42
2024-02-29T02:32:50.039Z,5.39
2024-02-29T02:33:51.577Z,5.42
2024-02-29T02:34:53.079Z,5.43
2024-02-29T02:35:54.622Z,5.47
2024-02-29T02:36:56.126Z,5.47
2024-02-29T02:37:57.637Z,5.57
2024-02-29T02:38:59.252Z,5.56
2024-02-29T02:40:01.074Z,5.52
2024-02-29T02:41:03.064Z,5.57
2024-02-29T02:42:04.909Z,5.66
2024-02-29T02:43:06.762Z,5.61
2024-02-29T02:44:08.299Z,5.62
2024-02-29T02:45:10.131Z,5.60
2024-02-29T02:46:12.568Z,5.71
2024-02-29T02:47:14.133Z,5.68
2024-02-29T02:48:15.630Z,5.68
2024-02-29T02:49:17.281Z,5.70
2024-02-29T02:50:18.819Z,5.69
2024-02-29T02:51:20.356Z,5.71
2024-02-29T02:52:22.047Z,5.67
2024-02-29T02:53:23.616Z,5.70
2024-02-29T02:54:25.133Z,5.77
2024-02-29T02:55:27.119Z,5.67
2024-02-29T02:56:28.632Z,5.72
2024-02-29T02:57:30.282Z,5.75
2024-02-29T02:58:31.828Z,5.78
2024-02-29T02:59:33.417Z,5.73
2024-02-29T03:00:35.367Z,5.81
2024-02-29T03:01:37.816Z,5.86
2024-02-29T03:02:41.185Z,5.85
2024-02-29T03:03:42.807Z,5.83
2024-02-29T03:04:44.324Z,5.82
2024-02-29T03:05:46.182Z,5.70
2024-02-29T03:06:48.304Z,5.77
2024-02-29T03:07:50.518Z,5.78
2024-02-29T03:08:52.765Z,5.74
2024-02-29T03:09:54.479Z,5.74
2024-02-29T03:10:56.364Z,5.82
2024-02-29T03:11:57.864Z,5.76
2024-02-29T03:12:59.397Z,5.86
2024-02-29T03:14:01.288Z,5.85
2024-02-29T03:15:02.802Z,5.92
2024-02-29T03:16:05.100Z,5.94
2024-02-29T03:17:06.643Z,5.93
2024-02-29T03:18:08.914Z,5.98
2024-02-29T03:19:10.650Z,5.97
2024-02-29T03:20:14.419Z,5.99
2024-02-29T03:21:16.667Z,5.93
2024-02-29T03:22:18.216Z,5.88
2024-02-29T03:23:21.294Z,5.86
2024-02-29T03:24:22.767Z,6.22
2024-02-29T03:25:24.183Z,6.28
2024-02-29T03:26:26.306Z,6.40
2024-02-29T03:27:27.828Z,6.20
2024-02-29T03:28:29.345Z,6.11
2024-02-29T03:29:32.760Z,6.04
2024-02-29T03:30:34.361Z,5.97
2024-02-29T03:31:36.579Z,5.99
2024-02-29T03:32:38.165Z,5.98
2024-02-29T03:33:39.802Z,5.86
2024-02-29T03:34:41.448Z,5.95
2024-02-29T03:35:42.932Z,5.96
2024-02-29T03:36:44.538Z,5.97
2024-02-29T03:37:46.051Z,5.87
2024-02-29T03:38:48.269Z,5.92
2024-02-29T03:39:49.894Z,5.93
2024-02-29T03:40:52.963Z,5.97
2024-02-29T03:41:54.759Z,6.28
2024-02-29T03:42:56.291Z,6.23
2024-02-29T03:43:57.838Z,6.14
2024-02-29T03:44:59.340Z,6.04
2024-02-29T03:46:00.866Z,6.04
2024-02-29T03:47:02.393Z,6.05
2024-02-29T03:48:04.106Z,6.02
2024-02-29T03:49:05.754Z,6.00
2024-02-29T03:50:07.683Z,5.98
2024-02-29T03:51:09.997Z,6.05
2024-02-29T03:52:11.730Z,5.96
2024-02-29T03:53:13.375Z,6.01
2024-02-29T03:54:14.914Z,6.03
2024-02-29T03:55:16.501Z,6.08
2024-02-29T03:56:18.617Z,6.10
2024-02-29T03:57:20.178Z,6.09
2024-02-29T03:58:21.760Z,6.11
2024-02-29T03:59:23.292Z,6.13
2024-02-29T04:00:24.804Z,6.15
2024-02-29T04:01:26.840Z,6.03
2024-02-29T04:02:29.165Z,6.15
2024-02-29T04:03:30.786Z,6.19
2024-02-29T04:04:32.352Z,6.26
2024-02-29T04:05:33.867Z,6.29
2024-02-29T04:06:35.471Z,6.26
2024-02-29T04:07:41.899Z,6.31
2024-02-29T04:08:43.423Z,6.27
2024-02-29T04:09:44.940Z,6.23
2024-02-29T04:10:49.770Z,6.27
2024-02-29T04:11:52.086Z,6.22
2024-02-29T04:12:53.608Z,6.27
2024-02-29T04:13:55.819Z,6.28
2024-02-29T04:14:57.695Z,6.27
2024-02-29T04:15:59.211Z,6.21
2024-02-29T04:17:02.045Z,6.10
2024-02-29T04:18:05.195Z,6.20
2024-02-29T04:19:07.097Z,6.23
2024-02-29T04:20:09.899Z,6.19
2024-02-29T04:21:11.623Z,6.17
2024-02-29T04:22:15.810Z,6.22
2024-02-29T04:23:17.530Z,6.27
2024-02-29T04:24:19.270Z,6.23
2024-02-29T04:25:24.010Z,6.28
2024-02-29T04:26:25.568Z,6.21
2024-02-29T04:27:27.125Z,6.06
2024-02-29T04:28:28.661Z,6.18
2024-02-29T04:29:30.357Z,6.18
2024-02-29T04:30:33.102Z,5.98
2024-02-29T04:31:34.710Z,6.01
2024-02-29T04:32:39.376Z,6.01
2024-02-29T04:33:41.642Z,6.08
2024-02-29T04:34:43.261Z,6.10
2024-02-29T04:35:44.798Z,6.23
2024-02-29T04:36:46.317Z,6.20
2024-02-29T04:37:48.914Z,6.15
2024-02-29T04:38:51.237Z,6.16
2024-02-29T04:39:52.877Z,6.20
2024-02-29T04:40:55.826Z,6.31
2024-02-29T04:41:57.459Z,6.34
2024-02-29T04:42:59.461Z,6.36
2024-02-29T04:44:01.084Z,6.29
2024-02-29T04:45:02.759Z,6.20
2024-02-29T04:46:04.467Z,6.18
2024-02-29T04:47:07.940Z,6.23
2024-02-29T04:48:09.538Z,6.20
2024-02-29T04:49:11.200Z,6.18
2024-02-29T04:50:12.778Z,6.26
2024-02-29T04:51:14.264Z,6.26
2024-02-29T04:52:16.118Z,6.18
2024-02-29T04:53:17.773Z,6.27
2024-02-29T04:54:19.564Z,6.22
2024-02-29T04:55:21.158Z,6.27
2024-02-29T04:56:22.813Z,6.29
2024-02-29T04:57:24.682Z,6.29
2024-02-29T04:58:26.154Z,6.32
2024-02-29T04:59:28.158Z,6.33
2024-02-29T05:00:29.673Z,6.21
2024-02-29T05:01:31.400Z,6.28
2024-02-29T05:02:34.851Z,6.21
2024-02-29T05:03:36.483Z,6.30
2024-02-29T05:04:38.639Z,6.32
2024-02-29T05:05:40.132Z,6.39
2024-02-29T05:06:41.634Z,6.45
2024-02-29T05:07:45.349Z,6.41
2024-02-29T05:08:46.870Z,6.36
2024-02-29T05:09:48.415Z,6.24
2024-02-29T05:10:49.985Z,6.36
2024-02-29T05:11:51.556Z,6.42
2024-02-29T05:12:54.941Z,6.43
2024-02-29T05:13:57.200Z,6.37
2024-02-29T05:14:58.924Z,6.40
2024-02-29T05:16:00.427Z,6.40
2024-02-29T05:17:02.092Z,6.42
2024-02-29T05:18:04.556Z,6.43
2024-02-29T05:19:06.090Z,6.41
2024-02-29T05:20:08.084Z,6.44
2024-02-29T05:21:09.616Z,6.52
2024-02-29T05:22:11.187Z,6.55
2024-02-29T05:23:13.160Z,6.62
2024-02-29T05:24:14.678Z,6.58
2024-02-29T05:25:16.402Z,6.59
2024-02-29T05:26:18.776Z,6.59
2024-02-29T05:27:20.321Z,6.55
2024-02-29T05:28:21.943Z,6.66
2024-02-29T05:29:23.441Z,6.61
2024-02-29T05:30:26.525Z,6.66
2024-02-29T05:31:27.972Z,6.97
2024-02-29T05:32:29.501Z,6.86
2024-02-29T05:33:31.545Z,6.77
2024-02-29T05:34:33.097Z,6.71
2024-02-29T05:35:35.068Z,6.69
2024-02-29T05:36:36.587Z,6.69
2024-02-29T05:37:38.124Z,6.62
2024-02-29T05:38:40.123Z,6.62
2024-02-29T05:39:41.859Z,6.60
2024-02-29T05:40:43.631Z,6.50
2024-02-29T05:41:45.215Z,6.60
2024-02-29T05:42:46.944Z,6.51
2024-02-29T05:43:49.064Z,6.61
2024-02-29T05:44:50.842Z,6.54
2024-02-29T05:45:52.593Z,6.59
2024-02-29T05:46:54.195Z,6.65
2024-02-29T05:47:55.730Z,6.63
2024-02-29T05:48:58.940Z,6.53
2024-02-29T05:50:00.514Z,6.59
2024-02-29T05:51:03.332Z,6.53
2024-02-29T05:52:05.110Z,6.57
2024-02-29T05:53:06.756Z,6.50
2024-02-29T05:54:08.671Z,6.59
2024-02-29T05:55:10.518Z,6.64
2024-02-29T05:56:14.752Z,6.64
2024-02-29T05:57:16.273Z,6.62
2024-02-29T05:58:19.383Z,6.63
2024-02-29T05:59:21.091Z,6.63
2024-02-29T06:00:25.389Z,6.58
2024-02-29T06:01:26.976Z,6.63
2024-02-29T06:02:28.877Z,6.57
2024-02-29T06:03:30.366Z,6.59
2024-02-29T06:04:31.880Z,6.58
2024-02-29T06:05:33.486Z,6.65
2024-02-29T06:06:35.608Z,6.64
2024-02-29T06:07:37.912Z,6.65
2024-02-29T06:08:39.894Z,6.65
2024-02-29T06:09:42.891Z,6.62
2024-02-29T06:10:47.884Z,6.95
2024-02-29T06:11:49.641Z,6.93
2024-02-29T06:12:51.219Z,6.79
2024-02-29T06:13:53.108Z,6.73
2024-02-29T06:14:54.601Z,6.72
2024-02-29T06:15:56.430Z,6.61
2024-02-29T06:16:58.014Z,6.68
2024-02-29T06:17:59.556Z,6.57
2024-02-29T06:19:01.232Z,6.52
2024-02-29T06:20:05.004Z,6.67
2024-02-29T06:21:06.508Z,6.69
2024-02-29T06:22:08.299Z,5.82
2024-02-29T06:23:09.834Z,5.78
2024-02-29T06:24:11.727Z,6.18
2024-02-29T06:25:13.390Z,6.42
2024-02-29T06:26:15.429Z,6.46
2024-02-29T06:27:18.337Z,6.53
2024-02-29T06:28:24.100Z,6.63
2024-02-29T06:29:26.462Z,6.62
2024-02-29T06:30:33.461Z,6.54
2024-02-29T06:31:35.367Z,6.27
2024-02-29T06:32:36.979Z,6.55
2024-02-29T06:33:38.571Z,6.59
2024-02-29T06:34:40.152Z,6.60
2024-02-29T06:35:42.175Z,6.72
2024-02-29T06:36:44.103Z,6.76
2024-02-29T06:37:45.705Z,6.89
2024-02-29T06:38:47.189Z,6.83
2024-02-29T06:39:49.041Z,6.94
2024-02-29T06:40:50.585Z,6.99
2024-02-29T06:41:52.108Z,7.03
2024-02-29T06:42:53.819Z,7.04
2024-02-29T06:43:55.391Z,7.13
2024-02-29T06:44:57.104Z,7.15
2024-02-29T06:46:01.597Z,6.96
2024-02-29T06:47:03.133Z,6.99
2024-02-29T06:48:05.422Z,7.10
2024-02-29T06:49:07.544Z,7.13
2024-02-29T06:50:10.284Z,7.15
2024-02-29T06:51:11.783Z,7.20
2024-02-29T06:52:13.400Z,7.12
2024-02-29T06:53:14.999Z,7.25
2024-02-29T06:54:16.564Z,7.28
2024-02-29T06:55:18.117Z,7.33
2024-02-29T06:56:19.897Z,7.36
2024-02-29T06:57:21.393Z,7.39
2024-02-29T06:58:22.996Z,7.42
2024-02-29T06:59:24.540Z,7.42
2024-02-29T07:00:26.148Z,6.72
2024-02-29T07:01:28.124Z,7.06
2024-02-29T07:02:29.799Z,7.30
2024-02-29T07:03:31.367Z,7.45
2024-02-29T07:04:33.215Z,7.51
2024-02-29T07:05:36.770Z,6.93
2024-02-29T07:06:38.553Z,7.03
2024-02-29T07:07:40.106Z,6.97
2024-02-29T07:08:41.761Z,6.69
2024-02-29T07:09:44.079Z,7.04
2024-02-29T07:10:45.694Z,6.84
2024-02-29T07:11:47.209Z,6.82
2024-02-29T07:12:49.187Z,7.20
2024-02-29T07:13:52.009Z,7.13
2024-02-29T07:14:53.597Z,7.21
2024-02-29T07:15:56.060Z,7.44
2024-02-29T07:16:57.629Z,6.94
2024-02-29T07:17:59.206Z,5.92
2024-02-29T07:19:00.785Z,6.01
2024-02-29T07:20:02.640Z,6.73
2024-02-29T07:21:05.476Z,7.11
2024-02-29T07:22:07.099Z,7.38
2024-02-29T07:23:11.009Z,6.39
2024-02-29T07:24:12.521Z,7.02
2024-02-29T07:25:14.315Z,6.97
2024-02-29T07:26:15.889Z,7.25
2024-02-29T07:27:17.412Z,7.41
2024-02-29T07:28:18.966Z,7.54
2024-02-29T07:29:20.737Z,7.72
2024-02-29T07:30:22.654Z,7.74
2024-02-29T07:31:24.626Z,7.55
2024-02-29T07:32:28.579Z,6.59
2024-02-29T07:33:32.344Z,7.05
2024-02-29T07:34:35.399Z,7.15
2024-02-29T07:35:37.131Z,6.79
2024-02-29T07:36:38.704Z,7.29
2024-02-29T07:37:40.791Z,7.27
2024-02-29T07:38:43.011Z,7.50
2024-02-29T07:39:44.539Z,6.42
2024-02-29T07:40:46.595Z,6.75
2024-02-29T07:41:48.407Z,7.06
2024-02-29T07:42:50.170Z,7.51
2024-02-29T07:43:51.749Z,7.76
2024-02-29T07:44:53.543Z,7.84
2024-02-29T07:45:55.125Z,7.20
2024-02-29T07:46:56.788Z,7.39
2024-02-29T07:47:58.817Z,7.09
2024-02-29T07:49:00.487Z,7.53
2024-02-29T07:50:04.463Z,7.78
2024-02-29T07:51:06.429Z,8.00
2024-02-29T07:52:08.036Z,7.95
2024-02-29T07:53:09.689Z,7.85
2024-02-29T07:54:11.217Z,8.06
2024-02-29T07:55:16.017Z,8.05
2024-02-29T07:56:17.992Z,8.21
2024-02-29T07:57:19.497Z,7.42
2024-02-29T07:58:21.150Z,7.22
2024-02-29T07:59:24.492Z,7.09
2024-02-29T08:00:26.469Z,7.68
2024-02-29T08:01:28.835Z,8.01
2024-02-29T08:02:30.373Z,7.84
2024-02-29T08:03:33.518Z,8.04
2024-02-29T08:04:35.236Z,8.27
2024-02-29T08:05:36.851Z,8.36
2024-02-29T08:06:38.364Z,8.02
2024-02-29T08:07:40.350Z,7.48
2024-02-29T08:08:42.591Z,7.87
2024-02-29T08:09:44.386Z,8.20
2024-02-29T08:10:46.281Z,8.28
2024-02-29T08:11:48.267Z,8.54
2024-02-29T08:12:49.897Z,7.65
2024-02-29T08:13:51.430Z,7.31
2024-02-29T08:14:53.028Z,6.89
2024-02-29T08:15:55.022Z,6.48
2024-02-29T08:16:56.577Z,6.40
2024-02-29T08:17:59.255Z,7.08
2024-02-29T08:19:00.916Z,6.99
2024-02-29T08:20:02.889Z,6.79
2024-02-29T08:21:05.242Z,7.27
2024-02-29T08:22:06.846Z,7.68
2024-02-29T08:23:08.396Z,7.53
2024-02-29T08:24:09.893Z,7.18
2024-02-29T08:25:11.731Z,7.37
2024-02-29T08:26:13.382Z,7.13
2024-02-29T08:27:14.973Z,7.67
2024-02-29T08:28:16.954Z,8.07
2024-02-29T08:29:19.261Z,8.28
2024-02-29T08:30:20.790Z,8.58
2024-02-29T08:31:22.425Z,8.76
2024-02-29T08:32:24.044Z,8.86
2024-02-29T08:33:25.561Z,9.11
2024-02-29T08:34:27.168Z,8.99
2024-02-29T08:35:28.814Z,8.30
2024-02-29T08:36:30.716Z,8.42
2024-02-29T08:37:32.234Z,7.47
2024-02-29T08:38:35.535Z,8.29
2024-02-29T08:39:39.500Z,8.72
2024-02-29T08:40:40.996Z,8.98
2024-02-29T08:41:42.960Z,8.95
2024-02-29T08:42:44.463Z,9.16
2024-02-29T08:43:45.966Z,9.19
2024-02-29T08:44:48.542Z,8.48
2024-02-29T08:45:51.089Z,7.88
2024-02-29T08:46:53.292Z,8.42
2024-02-29T08:47:54.864Z,8.87
2024-02-29T08:48:56.422Z,8.98
2024-02-29T08:49:57.987Z,9.06
2024-02-29T08:50:59.497Z,9.04
2024-02-29T08:52:01.128Z,9.11
2024-02-29T08:53:02.678Z,9.19
2024-02-29T08:54:09.774Z,8.88
2024-02-29T08:55:12.212Z,8.85
2024-02-29T08:56:14.321Z,8.87
2024-02-29T08:57:15.944Z,9.14
2024-02-29T08:58:17.545Z,9.30
2024-02-29T08:59:19.169Z,9.31
2024-02-29T09:00:20.798Z,9.43
2024-02-29T09:01:22.467Z,8.43
2024-02-29T09:02:24.235Z,7.71
2024-02-29T09:03:26.412Z,8.36
2024-02-29T09:04:28.048Z,7.93
2024-02-29T09:05:29.591Z,7.97
2024-02-29T09:06:40.806Z,8.16
2024-02-29T09:07:43.464Z,7.28
2024-02-29T09:08:45.041Z,7.00
2024-02-29T09:09:46.620Z,7.76
2024-02-29T09:10:48.219Z,7.69
2024-02-29T09:11:49.935Z,8.22
2024-02-29T09:12:51.447Z,8.64
2024-02-29T09:13:53.003Z,8.94
2024-02-29T09:14:54.498Z,8.73
2024-02-29T09:15:56.137Z,8.97
2024-02-29T09:16:58.065Z,9.17
2024-02-29T09:18:00.630Z,9.27
2024-02-29T09:19:04.329Z,9.30
2024-02-29T09:20:07.608Z,8.94
2024-02-29T09:21:09.435Z,8.98
2024-02-29T09:22:11.129Z,9.22
2024-02-29T09:23:12.649Z,9.51
2024-02-29T09:24:15.954Z,9.67
2024-02-29T09:25:20.834Z,9.71
2024-02-29T09:26:22.398Z,9.90
2024-02-29T09:27:23.952Z,9.96
2024-02-29T09:28:25.553Z,10.02
2024-02-29T09:29:27.996Z,10.09
2024-02-29T09:30:30.467Z,10.27
2024-02-29T09:31:32.897Z,10.16
2024-02-29T09:32:34.428Z,9.26
2024-02-29T09:33:35.971Z,9.47
2024-02-29T09:34:41.736Z,9.81
2024-02-29T09:35:48.248Z,9.99
2024-02-29T09:36:50.110Z,10.07
2024-02-29T09:37:51.660Z,10.19
2024-02-29T09:38:53.172Z,10.23
2024-02-29T09:39:54.807Z,10.34
2024-02-29T09:41:03.312Z,10.40
2024-02-29T09:42:15.458Z,10.49
2024-02-29T09:43:18.444Z,9.89
2024-02-29T09:44:20.260Z,8.80
2024-02-29T09:45:25.370Z,9.63
2024-02-29T09:46:27.378Z,10.21
2024-02-29T09:47:29.435Z,10.09
2024-02-29T09:48:31.104Z,10.21
2024-02-29T09:49:32.996Z,10.44
2024-02-29T09:50:34.525Z,10.50
2024-02-29T09:51:36.844Z,10.57
2024-02-29T09:52:39.830Z,10.07
2024-02-29T09:53:41.268Z,9.60
2024-02-29T09:54:42.962Z,10.17
2024-02-29T09:55:44.570Z,10.23
2024-02-29T09:56:49.132Z,10.34
2024-02-29T09:57:50.889Z,10.42
2024-02-29T09:58:52.777Z,10.52
2024-02-29T09:59:54.825Z,10.11
2024-02-29T10:00:57.073Z,10.31
2024-02-29T10:01:59.206Z,10.43
2024-02-29T10:03:02.045Z,10.24
2024-02-29T10:04:04.578Z,10.51
2024-02-29T10:05:10.409Z,10.21
2024-02-29T10:06:12.506Z,10.51
2024-02-29T10:07:16.183Z,10.58
2024-02-29T10:08:18.049Z,9.87
2024-02-29T10:09:19.651Z,10.40
2024-02-29T10:10:22.380Z,10.83
2024-02-29T10:11:31.088Z,11.01
2024-02-29T10:12:32.694Z,11.30
2024-02-29T10:13:38.755Z,11.37
2024-02-29T10:14:40.400Z,11.26
2024-02-29T10:15:42.712Z,10.24
2024-02-29T10:16:44.552Z,10.56
2024-02-29T10:17:46.763Z,11.06
2024-02-29T10:18:48.444Z,11.32
2024-02-29T10:19:53.396Z,11.57
2024-02-29T10:20:54.962Z,11.73
2024-02-29T10:21:58.022Z,12.08
2024-02-29T10:22:59.642Z,12.23
2024-02-29T10:24:01.236Z,11.50
2024-02-29T10:25:03.624Z,11.33
2024-02-29T10:26:06.039Z,12.07
2024-02-29T10:27:07.790Z,12.44
2024-02-29T10:28:13.874Z,11.60
2024-02-29T10:29:17.830Z,11.39
2024-02-29T10:30:19.848Z,9.63
2024-02-29T10:31:21.569Z,10.92
2024-02-29T10:32:23.106Z,11.60
2024-02-29T10:33:27.583Z,11.89
2024-02-29T10:34:29.418Z,11.31
2024-02-29T10:35:31.597Z,11.16
2024-02-29T10:36:33.725Z,11.70
2024-02-29T10:37:35.257Z,11.87
2024-02-29T10:38:38.473Z,12.27
2024-02-29T10:39:41.750Z,12.56
2024-02-29T10:40:43.604Z,12.76
2024-02-29T10:41:50.448Z,12.94
2024-02-29T10:42:55.469Z,12.99
2024-02-29T10:44:01.760Z,13.01
2024-02-29T10:45:04.086Z,13.03
2024-02-29T10:46:06.784Z,12.79
2024-02-29T10:47:09.681Z,12.25
2024-02-29T10:48:23.176Z,12.41
2024-02-29T10:49:31.441Z,12.46
2024-02-29T10:50:35.151Z,12.70
2024-02-29T10:51:46.240Z,12.81
2024-02-29T10:52:51.148Z,12.77
2024-02-29T10:54:03.764Z,12.73
2024-02-29T10:55:12.277Z,10.46
2024-02-29T10:56:23.427Z,9.95
2024-02-29T10:57:27.676Z,9.88
2024-02-29T10:58:37.874Z,10.91
2024-02-29T10:59:42.989Z,11.55
2024-02-29T11:00:44.785Z,11.70
2024-02-29T11:01:48.090Z,11.05
2024-02-29T11:02:50.131Z,11.24
2024-02-29T11:03:51.684Z,10.09
2024-02-29T11:04:54.116Z,10.65
2024-02-29T11:05:55.975Z,10.35
2024-02-29T11:06:57.953Z,11.19
2024-02-29T11:07:59.701Z,11.67
2024-02-29T11:09:03.204Z,12.01
2024-02-29T11:10:05.735Z,12.06
2024-02-29T11:11:13.140Z,11.89
2024-02-29T11:12:17.151Z,12.19
2024-02-29T11:13:20.328Z,12.08
2024-02-29T11:14:22.156Z,12.09
2024-02-29T11:15:27.714Z,12.27
2024-02-29T11:16:29.517Z,12.46
2024-02-29T11:17:32.472Z,12.42
2024-02-29T11:18:36.727Z,12.13
2024-02-29T11:19:47.457Z,12.59
2024-02-29T11:21:06.521Z,13.50
2024-02-29T11:22:14.562Z,14.14
2024-02-29T11:23:21.096Z,14.68
2024-02-29T11:24:23.825Z,14.27
2024-02-29T11:25:30.340Z,14.21
2024-02-29T11:26:33.763Z,14.29
2024-02-29T11:27:35.632Z,13.64
2024-02-29T11:28:43.346Z,13.48
2024-02-29T11:29:51.182Z,13.31
2024-02-29T11:31:08.094Z,13.33
2024-02-29T11:32:10.589Z,13.22
2024-02-29T11:33:13.221Z,12.36
2024-02-29T11:34:18.170Z,12.60
2024-02-29T11:35:19.953Z,13.01
2024-02-29T11:36:22.015Z,13.07
2024-02-29T11:37:26.688Z,13.06
2024-02-29T11:38:36.121Z,12.41
2024-02-29T11:39:41.632Z,12.51
2024-02-29T11:40:43.918Z,11.61
2024-02-29T11:41:45.559Z,12.21
2024-02-29T11:42:47.462Z,12.53
2024-02-29T11:43:50.413Z,12.89
2024-02-29T11:44:52.109Z,13.07
2024-02-29T11:45:53.625Z,13.09
2024-02-29T11:46:55.500Z,13.28
2024-02-29T11:47:57.366Z,11.75
2024-02-29T11:48:59.356Z,12.16
2024-02-29T11:50:01.858Z,12.84
2024-02-29T11:51:04.404Z,12.94
2024-02-29T11:52:06.021Z,12.52
2024-02-29T11:53:08.039Z,11.87
2024-02-29T11:54:10.850Z,12.47
2024-02-29T11:55:12.758Z,12.82
2024-02-29T11:56:16.585Z,11.43
2024-02-29T11:57:18.544Z,11.91
2024-02-29T11:58:21.667Z,11.36
2024-02-29T11:59:24.450Z,12.01
2024-02-29T12:00:28.775Z,12.51
2024-02-29T12:01:32.607Z,12.82
2024-02-29T12:02:35.999Z,12.91
2024-02-29T12:03:37.794Z,12.98
2024-02-29T12:04:39.439Z,11.51
2024-02-29T12:05:41.078Z,11.26
2024-02-29T12:06:45.019Z,12.12
2024-02-29T12:07:48.149Z,12.23
2024-02-29T12:08:50.019Z,11.92
2024-02-29T12:09:51.651Z,11.96
2024-02-29T12:10:56.449Z,12.22
2024-02-29T12:11:58.677Z,12.74
2024-02-29T12:13:00.570Z,11.90
2024-02-29T12:14:02.383Z,12.51
2024-02-29T12:15:06.411Z,12.45
2024-02-29T12:16:08.883Z,12.97
2024-02-29T12:17:10.451Z,13.25
2024-02-29T12:18:12.023Z,13.15
2024-02-29T12:19:17.483Z,13.09
2024-02-29T12:20:19.112Z,13.17
2024-02-29T12:21:20.635Z,13.20
2024-02-29T12:22:22.496Z,13.01
2024-02-29T12:23:25.037Z,13.12
2024-02-29T12:24:27.304Z,13.19
2024-02-29T12:25:29.326Z,13.11
2024-02-29T12:26:30.952Z,13.31
2024-02-29T12:27:32.463Z,13.41
2024-02-29T12:28:34.090Z,13.33
2024-02-29T12:29:35.912Z,11.97
2024-02-29T12:30:37.710Z,11.26
2024-02-29T12:31:41.687Z,10.54
2024-02-29T12:32:44.404Z,10.47
2024-02-29T12:33:47.718Z,10.91
2024-02-29T12:34:49.352Z,10.88
2024-02-29T12:35:52.329Z,11.57
2024-02-29T12:36:57.026Z,12.12
2024-02-29T12:37:59.397Z,12.54
2024-02-29T12:39:02.230Z,12.79
2024-02-29T12:40:05.601Z,12.83
2024-02-29T12:41:08.102Z,12.61
2024-02-29T12:42:09.985Z,12.23
2024-02-29T12:43:18.256Z,10.73
2024-02-29T12:44:19.974Z,11.61
2024-02-29T12:45:22.046Z,12.26
2024-02-29T12:46:23.643Z,12.58
2024-02-29T12:47:25.256Z,12.93
2024-02-29T12:48:26.744Z,13.15
2024-02-29T12:49:28.350Z,13.26
2024-02-29T12:50:30.436Z,13.48
2024-02-29T12:51:31.948Z,13.71
2024-02-29T12:52:33.541Z,13.37
2024-02-29T12:53:35.337Z,13.65
2024-02-29T12:54:37.771Z,13.72
2024-02-29T12:55:39.368Z,13.05
2024-02-29T12:56:40.997Z,11.00
2024-02-29T12:57:42.589Z,11.13
2024-02-29T12:58:48.311Z,11.42
2024-02-29T12:59:49.950Z,10.79
2024-02-29T13:00:51.533Z,11.45
2024-02-29T13:01:54.510Z,12.17
2024-02-29T13:02:56.274Z,11.41
2024-02-29T13:03:57.900Z,12.28
2024-02-29T13:04:59.435Z,12.78
2024-02-29T13:06:01.143Z,12.97
2024-02-29T13:07:02.808Z,13.09
2024-02-29T13:08:07.440Z,11.83
2024-02-29T13:09:09.041Z,12.34
2024-02-29T13:10:10.751Z,12.51
2024-02-29T13:11:12.414Z,12.79
2024-02-29T13:12:14.042Z,12.91
2024-02-29T13:13:15.826Z,12.96
2024-02-29T13:14:17.464Z,12.97
2024-02-29T13:15:19.308Z,13.05
2024-02-29T13:16:20.869Z,13.18
2024-02-29T13:17:22.355Z,13.16
2024-02-29T13:18:24.369Z,13.31
2024-02-29T13:19:25.942Z,13.47
2024-02-29T13:20:27.618Z,12.18
2024-02-29T13:21:29.246Z,12.36
2024-02-29T13:22:30.723Z,12.96
2024-02-29T13:23:32.308Z,13.08
2024-02-29T13:24:33.942Z,13.18
2024-02-29T13:25:36.573Z,13.25
2024-02-29T13:26:38.534Z,13.30
2024-02-29T13:27:40.141Z,13.35
2024-02-29T13:28:41.660Z,13.38
2024-02-29T13:29:43.201Z,12.45
2024-02-29T13:30:44.815Z,12.09
2024-02-29T13:31:46.365Z,12.35
2024-02-29T13:32:48.083Z,12.21
2024-02-29T13:33:49.609Z,12.62
2024-02-29T13:34:51.954Z,12.88
2024-02-29T13:35:53.566Z,12.69
2024-02-29T13:36:55.291Z,12.81
2024-02-29T13:37:56.814Z,12.76
2024-02-29T13:38:58.583Z,12.75
2024-02-29T13:40:00.233Z,12.70
2024-02-29T13:41:02.700Z,12.80
2024-02-29T13:42:06.583Z,12.91